sensor_id;sensor_type;location;lat;lon;timestamp;temperature;humidity
32147;DHT22;32190;49.112;8.598;2022-10-16T00:02:28;20.80;67.70
32147;DHT22;32190;49.112;8.598;2022-10-16T00:08:50;20.80;67.70
32147;DHT22;32190;49.112;8.598;2022-10-16T00:21:28;20.80;67.40
32147;DHT22;32190;49.112;8.598;2022-10-16T00:27:30;20.80;67.60
32147;DHT22;32190;49.112;8.598;2022-10-16T00:33:45;20.80;67.60
32147;DHT22;32190;49.112;8.598;2022-10-16T00:39:49;20.80;67.50
32147;DHT22;32190;49.112;8.598;2022-10-16T00:52:42;20.80;67.30
32147;DHT22;32190;49.112;8.598;2022-10-16T05:38:05;20.10;68.00
32147;DHT22;32190;49.112;8.598;2022-10-16T05:44:07;20.10;68.20
32147;DHT22;32190;49.112;8.598;2022-10-16T05:56:16;20.10;67.80
32147;DHT22;32190;49.112;8.598;2022-10-16T06:02:39;20.10;68.10
32147;DHT22;32190;49.112;8.598;2022-10-16T06:08:48;20.10;68.40
32147;DHT22;32190;49.112;8.598;2022-10-16T06:21:25;20.10;68.10
32147;DHT22;32190;49.112;8.598;2022-10-16T06:27:46;20.00;68.20
32147;DHT22;32190;49.112;8.598;2022-10-16T06:34:18;20.00;68.40
32147;DHT22;32190;49.112;8.598;2022-10-16T06:40:33;20.00;68.50
32147;DHT22;32190;49.112;8.598;2022-10-16T06:46:41;19.90;68.30
32147;DHT22;32190;49.112;8.598;2022-10-16T08:19:25;20.60;69.80
32147;DHT22;32190;49.112;8.598;2022-10-16T08:25:16;20.70;69.60
32147;DHT22;32190;49.112;8.598;2022-10-16T08:31:11;20.70;69.70
32147;DHT22;32190;49.112;8.598;2022-10-16T08:37:02;20.80;69.70
32147;DHT22;32190;49.112;8.598;2022-10-16T08:48:55;20.80;69.50
32147;DHT22;32190;49.112;8.598;2022-10-16T08:54:50;20.90;69.00
32147;DHT22;32190;49.112;8.598;2022-10-16T09:00:44;20.90;69.00
32147;DHT22;32190;49.112;8.598;2022-10-16T09:06:46;21.00;68.80
32147;DHT22;32190;49.112;8.598;2022-10-16T09:19:17;21.10;68.80
32147;DHT22;32190;49.112;8.598;2022-10-16T09:25:16;21.20;68.90
32147;DHT22;32190;49.112;8.598;2022-10-16T09:31:18;21.30;68.90
32147;DHT22;32190;49.112;8.598;2022-10-16T09:37:12;21.30;68.80
32147;DHT22;32190;49.112;8.598;2022-10-16T09:43:16;21.40;68.70
32147;DHT22;32190;49.112;8.598;2022-10-16T09:49:26;21.40;68.60
32147;DHT22;32190;49.112;8.598;2022-10-16T09:55:18;21.50;68.50
32147;DHT22;32190;49.112;8.598;2022-10-16T10:01:13;21.50;68.20
32147;DHT22;32190;49.112;8.598;2022-10-16T10:07:04;21.60;67.80
32147;DHT22;32190;49.112;8.598;2022-10-16T10:12:56;21.60;68.00
32147;DHT22;32190;49.112;8.598;2022-10-16T10:18:58;21.70;68.20
32147;DHT22;32190;49.112;8.598;2022-10-16T10:38:23;22.00;66.90
32147;DHT22;32190;49.112;8.598;2022-10-16T10:50:57;22.20;66.90
32147;DHT22;32190;49.112;8.598;2022-10-16T10:57:11;22.20;66.90
32147;DHT22;32190;49.112;8.598;2022-10-16T11:03:26;22.40;66.20
32147;DHT22;32190;49.112;8.598;2022-10-16T11:15:32;22.60;65.20
32147;DHT22;32190;49.112;8.598;2022-10-16T11:21:28;22.70;65.50
32147;DHT22;32190;49.112;8.598;2022-10-16T11:27:37;22.80;65.30
32147;DHT22;32190;49.112;8.598;2022-10-16T11:33:35;22.90;65.10
32147;DHT22;32190;49.112;8.598;2022-10-16T11:39:29;22.90;65.10
32147;DHT22;32190;49.112;8.598;2022-10-16T11:45:45;22.90;65.20
32147;DHT22;32190;49.112;8.598;2022-10-16T11:57:51;23.00;65.10
32147;DHT22;32190;49.112;8.598;2022-10-16T12:09:42;23.20;64.80
32147;DHT22;32190;49.112;8.598;2022-10-16T12:15:36;23.40;64.80
32147;DHT22;32190;49.112;8.598;2022-10-16T12:21:30;23.40;64.50
32147;DHT22;32190;49.112;8.598;2022-10-16T12:27:29;23.60;64.30
32147;DHT22;32190;49.112;8.598;2022-10-16T12:33:26;23.70;64.10
32147;DHT22;32190;49.112;8.598;2022-10-16T12:39:21;23.80;64.10
32147;DHT22;32190;49.112;8.598;2022-10-16T12:45:32;23.90;63.90
32147;DHT22;32190;49.112;8.598;2022-10-16T13:04:48;24.20;63.00
32147;DHT22;32190;49.112;8.598;2022-10-16T14:59:45;23.80;65.10
32147;DHT22;32190;49.112;8.598;2022-10-16T15:05:36;23.80;65.30
32147;DHT22;32190;49.112;8.598;2022-10-16T15:11:27;23.90;65.60
32147;DHT22;32190;49.112;8.598;2022-10-16T15:17:18;23.90;65.50
32147;DHT22;32190;49.112;8.598;2022-10-16T15:23:19;24.00;65.40
32147;DHT22;32190;49.112;8.598;2022-10-16T15:29:10;24.00;65.20
32147;DHT22;32190;49.112;8.598;2022-10-16T15:35:01;24.00;65.10
32147;DHT22;32190;49.112;8.598;2022-10-16T15:40:51;24.00;65.10
32147;DHT22;32190;49.112;8.598;2022-10-16T15:46:42;23.90;65.00
32147;DHT22;32190;49.112;8.598;2022-10-16T15:52:35;23.90;65.10
32147;DHT22;32190;49.112;8.598;2022-10-16T15:58:27;23.90;65.10
32147;DHT22;32190;49.112;8.598;2022-10-16T16:04:18;23.80;65.10
32147;DHT22;32190;49.112;8.598;2022-10-16T16:10:10;23.80;65.20
32147;DHT22;32190;49.112;8.598;2022-10-16T16:16:01;23.70;65.20
32147;DHT22;32190;49.112;8.598;2022-10-16T16:21:51;23.70;65.90
32147;DHT22;32190;49.112;8.598;2022-10-16T16:27:42;23.60;65.20
32147;DHT22;32190;49.112;8.598;2022-10-16T16:33:48;23.50;65.10
32147;DHT22;32190;49.112;8.598;2022-10-16T16:40:07;23.50;65.20
32147;DHT22;32190;49.112;8.598;2022-10-16T16:46:01;23.40;65.20
32147;DHT22;32190;49.112;8.598;2022-10-16T16:51:53;23.30;65.00
32147;DHT22;32190;49.112;8.598;2022-10-16T16:57:44;23.20;65.00
32147;DHT22;32190;49.112;8.598;2022-10-16T17:03:35;23.10;65.00
32147;DHT22;32190;49.112;8.598;2022-10-16T17:09:25;23.00;64.60
32147;DHT22;32190;49.112;8.598;2022-10-16T17:15:16;22.90;64.30
32147;DHT22;32190;49.112;8.598;2022-10-16T17:21:08;22.80;64.60
32147;DHT22;32190;49.112;8.598;2022-10-16T17:26:59;22.60;64.70
32147;DHT22;32190;49.112;8.598;2022-10-16T17:32:50;22.50;64.60
32147;DHT22;32190;49.112;8.598;2022-10-16T17:38:41;22.50;64.90
32147;DHT22;32190;49.112;8.598;2022-10-16T17:44:32;22.40;64.80
32147;DHT22;32190;49.112;8.598;2022-10-16T17:50:22;22.30;64.70
32147;DHT22;32190;49.112;8.598;2022-10-16T17:56:21;22.30;64.50
32147;DHT22;32190;49.112;8.598;2022-10-16T18:02:15;22.10;64.00
32147;DHT22;32190;49.112;8.598;2022-10-16T18:08:07;22.00;64.30
32147;DHT22;32190;49.112;8.598;2022-10-16T18:13:59;21.90;64.40
32147;DHT22;32190;49.112;8.598;2022-10-16T18:19:50;21.80;64.50
32147;DHT22;32190;49.112;8.598;2022-10-16T18:25:48;21.70;64.60
32147;DHT22;32190;49.112;8.598;2022-10-16T18:31:45;21.70;64.70
32147;DHT22;32190;49.112;8.598;2022-10-16T18:37:45;21.60;64.80
32147;DHT22;32190;49.112;8.598;2022-10-16T18:43:55;21.60;64.90
32147;DHT22;32190;49.112;8.598;2022-10-16T18:49:49;21.50;64.90
32147;DHT22;32190;49.112;8.598;2022-10-16T18:55:39;21.50;65.00
32147;DHT22;32190;49.112;8.598;2022-10-16T19:08:17;21.40;64.90
32147;DHT22;32190;49.112;8.598;2022-10-16T19:14:09;21.30;64.90
32147;DHT22;32190;49.112;8.598;2022-10-16T19:26:35;21.30;65.10
32147;DHT22;32190;49.112;8.598;2022-10-16T19:32:44;21.20;65.10
32147;DHT22;32190;49.112;8.598;2022-10-16T19:38:47;21.20;65.10
32147;DHT22;32190;49.112;8.598;2022-10-16T19:44:41;21.10;65.20
32147;DHT22;32190;49.112;8.598;2022-10-16T19:50:34;21.00;65.30
32147;DHT22;32190;49.112;8.598;2022-10-16T20:02:49;20.90;65.30
32147;DHT22;32190;49.112;8.598;2022-10-16T20:08:41;21.00;65.50
32147;DHT22;32190;49.112;8.598;2022-10-16T20:14:33;21.00;65.50
32147;DHT22;32190;49.112;8.598;2022-10-16T20:20:27;21.00;65.60
32147;DHT22;32190;49.112;8.598;2022-10-16T20:26:19;20.90;65.60
32147;DHT22;32190;49.112;8.598;2022-10-16T20:32:17;20.90;65.70
32147;DHT22;32190;49.112;8.598;2022-10-16T20:38:27;20.80;65.60
32147;DHT22;32190;49.112;8.598;2022-10-16T20:44:18;20.80;65.90
32147;DHT22;32190;49.112;8.598;2022-10-16T20:50:08;20.80;65.90
32147;DHT22;32190;49.112;8.598;2022-10-16T20:56:03;20.80;65.90
32147;DHT22;32190;49.112;8.598;2022-10-16T21:02:08;20.70;65.90
32147;DHT22;32190;49.112;8.598;2022-10-16T21:08:17;20.70;66.00
32147;DHT22;32190;49.112;8.598;2022-10-16T21:14:30;20.70;66.00
32147;DHT22;32190;49.112;8.598;2022-10-16T21:20:23;20.70;66.10
32147;DHT22;32190;49.112;8.598;2022-10-16T21:26:18;20.70;66.00
32147;DHT22;32190;49.112;8.598;2022-10-16T21:32:32;20.70;66.10
32147;DHT22;32190;49.112;8.598;2022-10-16T21:38:35;20.60;66.10
32147;DHT22;32190;49.112;8.598;2022-10-16T21:44:26;20.60;66.10
32147;DHT22;32190;49.112;8.598;2022-10-16T21:50:19;20.60;66.00
32147;DHT22;32190;49.112;8.598;2022-10-16T21:56:34;20.50;66.00
32147;DHT22;32190;49.112;8.598;2022-10-16T22:02:27;20.50;66.10
32147;DHT22;32190;49.112;8.598;2022-10-16T22:08:41;20.50;66.10
32147;DHT22;32190;49.112;8.598;2022-10-16T22:14:38;20.50;66.10
32147;DHT22;32190;49.112;8.598;2022-10-16T22:20:35;20.50;66.10
32147;DHT22;32190;49.112;8.598;2022-10-16T22:26:26;20.50;66.00
32147;DHT22;32190;49.112;8.598;2022-10-16T22:32:17;20.40;66.00
32147;DHT22;32190;49.112;8.598;2022-10-16T22:38:08;20.40;66.60
32147;DHT22;32190;49.112;8.598;2022-10-16T22:44:09;20.30;65.70
32147;DHT22;32190;49.112;8.598;2022-10-16T22:50:00;20.30;65.70
32147;DHT22;32190;49.112;8.598;2022-10-16T22:55:51;20.20;65.60
32147;DHT22;32190;49.112;8.598;2022-10-16T23:01:42;20.20;65.50
32147;DHT22;32190;49.112;8.598;2022-10-16T23:07:33;20.10;65.60
32147;DHT22;32190;49.112;8.598;2022-10-16T23:13:23;20.10;65.60
32147;DHT22;32190;49.112;8.598;2022-10-16T23:19:17;20.00;65.70
32147;DHT22;32190;49.112;8.598;2022-10-16T23:25:08;20.00;65.80
32147;DHT22;32190;49.112;8.598;2022-10-16T23:30:58;20.00;65.90
32147;DHT22;32190;49.112;8.598;2022-10-16T23:36:49;20.00;66.00
32147;DHT22;32190;49.112;8.598;2022-10-16T23:42:40;20.00;66.10
32147;DHT22;32190;49.112;8.598;2022-10-16T23:48:31;20.00;66.00
32147;DHT22;32190;49.112;8.598;2022-10-16T23:54:22;19.90;65.90
